Time;durP1;ratioP1;P1;durP2;ratioP2;P2;SDS_P1;SDS_P2;PMS_P1;PMS_P2;Temp;Humidity;BMP_temperature;BMP_pressure;BME280_temperature;BME280_humidity;BME280_pressure;Samples;Min_cycle;Max_cycle;Signal;HPM_P1;HPM_P2
2023/12/20 00:01:08;;;;;;;16.33;7.38;;;;;;;6.29;100.00;101432.47;5080524;28;20032;-73
2023/12/20 00:03:35;;;;;;;16.90;8.68;;;;;;;6.26;100.00;101438.59;5067309;28;20587;-73
2023/12/20 00:06:10;;;;;;;16.53;8.30;;;;;;;6.25;100.00;101452.56;5072231;28;20041;-72
2023/12/20 00:08:37;;;;;;;16.00;8.70;;;;;;;6.25;100.00;101443.84;5053542;28;20033;-72
2023/12/20 00:11:04;;;;;;;19.17;8.68;;;;;;;6.24;100.00;101456.03;5072113;28;20608;-71
2023/12/20 00:13:31;;;;;;;18.38;8.52;;;;;;;6.20;100.00;101443.84;5061926;28;20043;-72
2023/12/20 00:15:58;;;;;;;17.65;7.82;;;;;;;6.18;100.00;101449.06;5065931;28;20546;-72
2023/12/20 00:18:26;;;;;;;16.98;8.75;;;;;;;6.14;100.00;101451.72;5067656;28;20040;-72
2023/12/20 00:20:53;;;;;;;15.75;8.18;;;;;;;6.07;100.00;101450.84;5065970;28;20044;-72
2023/12/20 00:23:20;;;;;;;18.48;8.18;;;;;;;5.98;100.00;101456.94;5063952;28;20089;-72
2023/12/20 00:25:47;;;;;;;15.75;6.60;;;;;;;5.91;100.00;101461.31;5080879;28;20035;-72
2023/12/20 00:28:14;;;;;;;17.45;6.32;;;;;;;5.85;100.00;101452.59;5066518;28;20072;-73
2023/12/20 00:30:41;;;;;;;18.23;6.22;;;;;;;5.80;100.00;101446.50;5080987;28;20071;-72
2023/12/20 00:33:08;;;;;;;19.10;5.97;;;;;;;5.73;100.00;101449.09;5065148;28;20045;-71
2023/12/20 00:35:36;;;;;;;16.08;5.28;;;;;;;5.67;100.00;101451.75;5060651;28;20037;-71
2023/12/20 00:38:05;;;;;;;16.92;5.05;;;;;;;5.62;100.00;101434.31;5077961;28;20036;-71
2023/12/20 00:40:32;;;;;;;18.58;5.10;;;;;;;5.54;100.00;101437.78;5059466;28;20673;-71
2023/12/20 00:43:00;;;;;;;19.60;5.35;;;;;;;5.56;100.00;101436.03;5081844;28;20076;-71
2023/12/20 00:45:27;;;;;;;13.27;4.68;;;;;;;5.58;100.00;101446.50;5064230;28;20105;-71
2023/12/20 00:47:54;;;;;;;17.73;4.53;;;;;;;5.57;100.00;101437.78;5077343;28;20122;-71
2023/12/20 00:50:21;;;;;;;22.90;4.57;;;;;;;5.55;100.00;101438.66;5061443;28;20048;-71
2023/12/20 00:52:49;;;;;;;16.63;4.25;;;;;;;5.57;100.00;101437.78;5085897;28;20056;-72
2023/12/20 00:55:17;;;;;;;17.90;4.80;;;;;;;5.54;100.00;101434.28;5083453;28;20459;-72
2023/12/20 00:57:44;;;;;;;20.55;4.28;;;;;;;5.49;100.00;101438.66;5051437;28;20127;-72
2023/12/20 01:00:13;;;;;;;14.73;4.07;;;;;;;5.44;100.00;101441.28;5059602;28;20055;-72
2023/12/20 01:02:40;;;;;;;19.23;4.55;;;;;;;5.40;100.00;101439.53;5069792;28;20036;-72
2023/12/20 01:05:09;;;;;;;17.17;4.53;;;;;;;5.36;100.00;101445.59;5069702;28;20068;-72
2023/12/20 01:07:36;;;;;;;20.52;4.05;;;;;;;5.31;100.00;101431.66;5062249;28;20044;-71
2023/12/20 01:10:03;;;;;;;18.95;4.40;;;;;;;5.25;100.00;101422.94;5084211;28;20126;-71
2023/12/20 01:12:30;;;;;;;17.15;4.38;;;;;;;5.19;100.00;101425.56;5066014;28;20055;-72
2023/12/20 01:14:58;;;;;;;19.73;4.88;;;;;;;5.12;100.00;101434.25;5070330;28;20029;-72
2023/12/20 01:17:25;;;;;;;18.40;4.43;;;;;;;5.07;100.00;101436.88;5069453;28;20123;-72
2023/12/20 01:19:52;;;;;;;18.35;5.32;;;;;;;5.05;100.00;101440.31;5069692;28;20048;-73
2023/12/20 01:22:19;;;;;;;20.08;5.10;;;;;;;5.00;100.00;101440.31;5068949;28;20049;-72
2023/12/20 01:24:47;;;;;;;18.77;5.32;;;;;;;4.97;100.00;101438.56;5087541;28;20033;-72
2023/12/20 01:27:14;;;;;;;19.40;5.45;;;;;;;4.95;100.00;101450.75;5067856;28;20048;-72
2023/12/20 01:29:41;;;;;;;19.17;5.30;;;;;;;4.92;100.00;101440.31;5070276;28;20123;-72
2023/12/20 01:32:08;;;;;;;18.80;5.82;;;;;;;4.90;100.00;101444.66;5062112;28;20074;-72
2023/12/20 01:34:35;;;;;;;16.27;6.45;;;;;;;4.87;100.00;101442.03;5069498;28;20055;-72
2023/12/20 01:37:04;;;;;;;24.02;6.50;;;;;;;4.87;100.00;101446.41;5074425;28;20047;-73
2023/12/20 01:39:31;;;;;;;23.13;6.85;;;;;;;4.85;100.00;101450.75;5064292;28;20119;-72
2023/12/20 01:41:58;;;;;;;18.25;7.03;;;;;;;4.85;100.00;101442.91;5082392;28;20041;-72
2023/12/20 01:44:25;;;;;;;20.65;6.40;;;;;;;4.92;100.00;101442.03;5068057;28;20132;-72
2023/12/20 01:46:52;;;;;;;18.60;6.25;;;;;;;4.98;100.00;101447.31;5077913;28;20143;-72
2023/12/20 01:49:20;;;;;;;19.67;6.10;;;;;;;5.07;100.00;101446.44;5072607;28;20131;-70
2023/12/20 01:51:48;;;;;;;18.23;5.47;;;;;;;5.14;100.00;101450.78;5048575;28;20049;-70
2023/12/20 01:54:16;;;;;;;24.08;5.90;;;;;;;5.13;100.00;101446.47;5085825;28;20210;-70
2023/12/20 01:56:43;;;;;;;20.80;4.97;;;;;;;5.09;100.00;101447.31;5065616;28;20492;-70
2023/12/20 01:59:11;;;;;;;16.65;4.22;;;;;;;5.08;100.00;101442.97;5059924;28;20052;-70
2023/12/20 02:01:38;;;;;;;15.98;4.07;;;;;;;5.06;100.00;101442.97;5084753;28;20271;-70
2023/12/20 02:04:06;;;;;;;18.50;4.00;;;;;;;5.06;100.00;101445.56;5066042;28;20416;-70
2023/12/20 02:06:33;;;;;;;17.52;4.50;;;;;;;5.11;100.00;101453.44;5100114;28;20041;-70
2023/12/20 02:09:01;;;;;;;14.77;4.10;;;;;;;5.15;100.00;101443.84;5068869;28;20051;-70
2023/12/20 02:11:28;;;;;;;16.55;4.10;;;;;;;5.20;100.00;101453.44;5066170;28;20036;-70
2023/12/20 02:13:55;;;;;;;17.10;4.15;;;;;;;5.22;100.00;101448.22;5087633;28;20039;-70
2023/12/20 02:16:23;;;;;;;19.33;4.45;;;;;;;5.22;100.00;101450.81;5081059;28;20051;-70
2023/12/20 02:18:50;;;;;;;20.83;4.18;;;;;;;5.19;100.00;101448.22;5058887;28;20068;-70
2023/12/20 02:21:17;;;;;;;15.07;3.90;;;;;;;5.16;100.00;101456.03;5060084;28;20497;-70
2023/12/20 02:23:44;;;;;;;19.50;3.55;;;;;;;5.10;100.00;101451.69;5066319;28;20132;-70
2023/12/20 02:26:13;;;;;;;12.88;4.10;;;;;;;5.05;100.00;101456.91;5068676;28;20119;-71
2023/12/20 02:28:40;;;;;;;18.40;3.67;;;;;;;5.06;100.00;101450.81;5099461;28;20044;-71
2023/12/20 02:31:08;;;;;;;18.60;3.60;;;;;;;5.09;100.00;101447.31;5065376;28;20083;-70
2023/12/20 02:33:35;;;;;;;16.90;3.42;;;;;;;5.10;100.00;101442.09;5067597;28;20617;-71
2023/12/20 02:36:02;;;;;;;15.23;3.42;;;;;;;5.08;100.00;101441.22;5064573;28;20047;-71
2023/12/20 02:38:29;;;;;;;17.05;3.90;;;;;;;5.06;100.00;101442.06;5066722;28;20151;-72
2023/12/20 02:40:56;;;;;;;17.13;3.40;;;;;;;5.02;100.00;101438.59;5050729;28;20037;-72
2023/12/20 02:43:23;;;;;;;15.73;3.40;;;;;;;4.99;100.00;101449.03;5067312;28;20048;-72
2023/12/20 02:45:50;;;;;;;19.30;3.95;;;;;;;4.95;100.00;101455.97;5067517;28;20040;-72
2023/12/20 02:48:18;;;;;;;15.63;3.03;;;;;;;4.92;100.00;101447.25;5049300;28;20241;-72
2023/12/20 02:50:48;;;;;;;15.98;3.42;;;;;;;4.87;100.00;101442.03;5065195;28;20044;-72
2023/12/20 02:53:15;;;;;;;19.33;3.50;;;;;;;4.84;100.00;101434.16;5093402;28;20044;-73
2023/12/20 02:55:42;;;;;;;21.02;4.20;;;;;;;4.80;100.00;101432.44;5066266;28;20113;-72
2023/12/20 02:58:09;;;;;;;15.50;3.95;;;;;;;4.76;100.00;101426.34;5067024;28;20040;-71
2023/12/20 03:00:37;;;;;;;21.40;4.00;;;;;;;4.74;100.00;101427.16;5065312;28;20105;-72
2023/12/20 03:03:04;;;;;;;19.30;4.05;;;;;;;4.71;100.00;101427.19;5062395;28;20048;-71
2023/12/20 03:05:32;;;;;;;15.32;3.75;;;;;;;4.70;100.00;101426.28;5067977;28;20086;-72
2023/12/20 03:08:00;;;;;;;18.95;3.95;;;;;;;4.68;100.00;101437.63;5067322;28;20597;-71
2023/12/20 03:10:27;;;;;;;17.95;3.75;;;;;;;4.64;100.00;101428.91;5065981;28;20040;-71
2023/12/20 03:12:54;;;;;;;24.27;4.47;;;;;;;4.62;100.00;101426.28;5081956;28;20121;-72
2023/12/20 03:15:21;;;;;;;18.17;3.67;;;;;;;4.62;100.00;101421.06;5067354;28;20045;-71
2023/12/20 03:17:48;;;;;;;17.50;3.65;;;;;;;4.67;100.00;101413.25;5067849;28;20101;-71
2023/12/20 03:20:16;;;;;;;23.13;4.90;;;;;;;4.71;100.00;101409.75;5066644;28;20055;-71
2023/12/20 03:22:43;;;;;;;19.65;4.18;;;;;;;4.73;100.00;101415.88;5065367;28;20060;-71
2023/12/20 03:25:10;;;;;;;23.35;4.40;;;;;;;4.78;100.00;101424.56;5059522;28;20479;-71
2023/12/20 03:27:38;;;;;;;18.45;4.63;;;;;;;4.84;100.00;101412.41;5071240;28;20123;-73
2023/12/20 03:30:06;;;;;;;19.90;4.47;;;;;;;4.86;100.00;101406.31;5079447;28;20036;-73
2023/12/20 03:32:33;;;;;;;18.95;3.92;;;;;;;4.85;100.00;101406.31;5062366;28;20041;-73
2023/12/20 03:35:01;;;;;;;19.10;4.32;;;;;;;4.81;100.00;101418.50;5062826;28;20113;-73
2023/12/20 03:37:28;;;;;;;20.02;3.70;;;;;;;4.77;100.00;101406.28;5064038;28;20090;-72
2023/12/20 03:39:55;;;;;;;17.48;4.13;;;;;;;4.75;100.00;101408.03;5054182;28;20052;-72
2023/12/20 03:42:22;;;;;;;19.70;4.88;;;;;;;4.71;100.00;101412.38;5055873;28;20124;-72
2023/12/20 03:44:49;;;;;;;20.30;4.57;;;;;;;4.68;100.00;101409.75;5083396;28;20518;-72
2023/12/20 03:47:16;;;;;;;18.63;4.13;;;;;;;4.65;100.00;101401.91;5062383;28;20048;-72
2023/12/20 03:49:43;;;;;;;19.60;4.10;;;;;;;4.60;100.00;101401.91;5050738;28;20048;-72
2023/12/20 03:52:10;;;;;;;26.02;4.40;;;;;;;4.58;100.00;101397.56;5081953;28;20057;-71
2023/12/20 03:54:38;;;;;;;19.48;4.38;;;;;;;4.57;100.00;101398.41;5067095;28;20413;-72
2023/12/20 03:57:05;;;;;;;19.95;4.43;;;;;;;4.56;100.00;101396.66;5067484;28;20504;-71
2023/12/20 03:59:37;;;;;;;22.48;4.88;;;;;;;4.56;100.00;101400.13;5065665;28;20046;-72
2023/12/20 04:02:04;;;;;;;22.90;4.80;;;;;;;4.52;100.00;101414.06;5057729;28;20610;-71
2023/12/20 04:04:31;;;;;;;23.83;4.75;;;;;;;4.49;100.00;101419.25;5049082;28;20055;-71
2023/12/20 04:06:59;;;;;;;19.42;4.15;;;;;;;4.47;100.00;101419.28;5065040;28;20075;-71
2023/12/20 04:09:26;;;;;;;22.92;4.57;;;;;;;4.48;100.00;101423.59;5058062;28;20040;-71
2023/12/20 04:11:53;;;;;;;22.73;4.95;;;;;;;4.53;100.00;101427.97;5066266;28;20556;-71
2023/12/20 04:14:20;;;;;;;24.08;4.55;;;;;;;4.57;100.00;101422.78;5081902;28;20435;-71
2023/12/20 04:16:47;;;;;;;25.65;4.55;;;;;;;4.58;100.00;101426.28;5067634;28;20492;-71
2023/12/20 04:19:14;;;;;;;25.42;5.10;;;;;;;4.64;100.00;101408.88;5064425;28;20542;-71
2023/12/20 04:21:42;;;;;;;26.42;4.32;;;;;;;4.72;100.00;101408.03;5066666;28;20037;-70
2023/12/20 04:24:09;;;;;;;21.58;4.70;;;;;;;4.80;100.00;101420.22;5063111;28;20032;-71
2023/12/20 04:26:36;;;;;;;27.63;5.57;;;;;;;4.88;100.00;101403.72;5070870;28;20072;-71
2023/12/20 04:29:03;;;;;;;16.17;3.95;;;;;;;4.93;100.00;101405.47;5083025;28;20074;-71
2023/12/20 04:31:30;;;;;;;20.23;4.57;;;;;;;4.98;100.00;101397.66;5083914;28;20072;-71
2023/12/20 04:33:57;;;;;;;20.35;4.10;;;;;;;5.00;100.00;101395.88;5087040;28;20044;-71
2023/12/20 04:36:26;;;;;;;24.08;4.85;;;;;;;5.01;100.00;101389.78;5049309;28;20076;-71
2023/12/20 04:38:54;;;;;;;22.63;4.40;;;;;;;5.01;100.00;101402.88;5077614;28;20045;-70
2023/12/20 04:41:21;;;;;;;19.67;4.63;;;;;;;5.02;100.00;101406.38;5068343;28;20044;-71
2023/12/20 04:43:48;;;;;;;19.00;3.88;;;;;;;5.03;100.00;101403.75;5068524;28;20040;-71
2023/12/20 04:46:15;;;;;;;27.42;4.63;;;;;;;5.03;100.00;101402.88;5069818;28;20051;-71
2023/12/20 04:48:42;;;;;;;23.77;4.70;;;;;;;5.04;100.00;101405.50;5070807;28;20052;-71
2023/12/20 04:51:09;;;;;;;17.38;4.38;;;;;;;5.10;100.00;101408.09;5069739;28;20059;-71
2023/12/20 04:53:36;;;;;;;19.60;4.22;;;;;;;5.17;100.00;101403.75;5065534;28;20428;-71
2023/12/20 04:56:04;;;;;;;21.75;4.28;;;;;;;5.26;100.00;101409.00;5071397;28;20082;-71
2023/12/20 04:58:31;;;;;;;18.73;4.30;;;;;;;5.31;100.00;101418.59;5085181;28;20167;-71
2023/12/20 05:00:58;;;;;;;20.48;4.68;;;;;;;5.34;100.00;101414.22;5051489;28;20056;-71
2023/12/20 05:03:25;;;;;;;20.25;3.88;;;;;;;5.33;100.00;101407.25;5069002;28;20045;-71
2023/12/20 05:05:53;;;;;;;24.48;4.68;;;;;;;5.31;100.00;101398.53;5070112;28;20554;-71
2023/12/20 05:08:20;;;;;;;19.48;4.35;;;;;;;5.29;100.00;101410.75;5070288;28;20048;-71
2023/12/20 05:10:48;;;;;;;20.95;4.95;;;;;;;5.28;100.00;101412.50;5060298;28;20052;-71
2023/12/20 05:13:15;;;;;;;26.90;4.88;;;;;;;5.30;100.00;101412.47;5065646;28;20766;-72
2023/12/20 05:15:42;;;;;;;16.10;3.90;;;;;;;5.32;100.00;101402.91;5069118;28;20055;-71
2023/12/20 05:18:09;;;;;;;17.60;4.50;;;;;;;5.35;100.00;101409.88;5101315;28;20040;-71
2023/12/20 05:20:37;;;;;;;23.05;4.60;;;;;;;5.39;100.00;101395.94;5062876;28;20126;-71
2023/12/20 05:23:06;;;;;;;18.02;4.22;;;;;;;5.41;100.00;101399.44;5068557;28;20139;-70
2023/12/20 05:25:33;;;;;;;21.25;4.47;;;;;;;5.43;100.00;101400.31;5066199;28;20044;-70
2023/12/20 05:28:00;;;;;;;22.02;4.20;;;;;;;5.44;100.00;101395.06;5086181;28;20120;-71
2023/12/20 05:30:27;;;;;;;23.52;4.85;;;;;;;5.47;100.00;101388.09;5084068;28;20488;-73
2023/12/20 05:32:55;;;;;;;20.73;4.18;;;;;;;5.50;100.00;101396.81;5063095;28;20468;-72
2023/12/20 05:35:23;;;;;;;23.45;4.90;;;;;;;5.52;100.00;101391.56;5052709;28;20057;-70
2023/12/20 05:37:50;;;;;;;19.73;4.20;;;;;;;5.53;100.00;101391.59;5057833;28;20056;-70
2023/12/20 05:40:17;;;;;;;19.15;4.35;;;;;;;5.60;100.00;101381.97;5066690;28;20148;-70
2023/12/20 05:42:49;;;;;;;24.92;4.97;;;;;;;5.74;100.00;101379.34;5064146;28;20040;-71
2023/12/20 05:45:16;;;;;;;20.42;4.75;;;;;;;5.82;100.00;101380.22;5065261;28;20055;-70
2023/12/20 05:47:43;;;;;;;22.48;4.50;;;;;;;5.90;100.00;101385.44;5061311;28;20636;-70
2023/12/20 05:50:11;;;;;;;15.88;4.25;;;;;;;5.97;100.00;101378.41;5061048;28;20106;-71
2023/12/20 05:52:38;;;;;;;19.98;4.40;;;;;;;6.06;100.00;101374.06;5062362;28;20048;-70
2023/12/20 05:55:08;;;;;;;25.27;4.70;;;;;;;6.16;100.00;101379.28;5060492;28;20052;-71
2023/12/20 05:57:38;;;;;;;22.85;4.68;;;;;;;6.15;100.00;101390.63;5063108;28;20037;-72
2023/12/20 06:00:06;;;;;;;16.10;3.67;;;;;;;6.09;100.00;101398.50;5064007;28;20040;-73
2023/12/20 06:02:41;;;;;;;24.35;4.43;;;;;;;6.04;100.00;101402.00;5062217;28;20045;-71
2023/12/20 06:05:12;;;;;;;21.35;4.70;;;;;;;5.99;100.00;101401.16;5060266;28;20475;-74
2023/12/20 06:07:39;;;;;;;19.08;3.78;;;;;;;5.97;100.00;101395.00;5059749;28;20132;-72
2023/12/20 06:10:06;;;;;;;22.95;4.40;;;;;;;6.01;100.00;101399.38;5065736;28;20040;-72
2023/12/20 06:12:35;;;;;;;22.38;4.55;;;;;;;6.15;100.00;101398.47;5064237;28;20549;-72
2023/12/20 06:15:06;;;;;;;21.05;3.55;;;;;;;6.25;100.00;101404.56;5060272;28;20132;-70
2023/12/20 06:17:34;;;;;;;21.15;4.75;;;;;;;6.36;100.00;101406.25;5057683;28;20064;-70
2023/12/20 06:20:07;;;;;;;18.48;3.92;;;;;;;6.45;100.00;101415.84;5059202;28;20115;-71
2023/12/20 06:22:36;;;;;;;18.98;3.60;;;;;;;6.49;100.00;101417.56;5061541;28;20055;-71
2023/12/20 06:25:04;;;;;;;24.15;3.75;;;;;;;6.53;100.00;101411.44;5090583;28;20132;-73
2023/12/20 06:27:32;;;;;;;22.35;4.70;;;;;;;6.51;100.00;101420.19;5060080;28;20761;-71
2023/12/20 06:29:59;;;;;;;18.33;4.03;;;;;;;6.42;100.00;101422.81;5059036;28;20078;-71
2023/12/20 06:32:28;;;;;;;17.83;4.07;;;;;;;6.34;100.00;101408.00;5058777;28;20051;-71
2023/12/20 06:34:56;;;;;;;20.08;4.25;;;;;;;6.29;100.00;101407.16;5060867;28;20070;-71
2023/12/20 06:37:23;;;;;;;16.55;3.50;;;;;;;6.25;100.00;101407.19;5094435;28;20162;-72
2023/12/20 06:39:50;;;;;;;18.27;3.60;;;;;;;6.20;100.00;101399.34;5064062;28;20052;-71
2023/12/20 06:42:18;;;;;;;14.57;3.83;;;;;;;6.17;100.00;101401.97;5061770;28;20068;-71
2023/12/20 06:44:45;;;;;;;24.02;4.38;;;;;;;6.14;100.00;101392.38;5062219;28;20048;-72
2023/12/20 06:47:14;;;;;;;18.52;3.85;;;;;;;6.13;100.00;101401.09;5063034;28;20432;-71
2023/12/20 06:49:41;;;;;;;21.95;4.18;;;;;;;6.13;100.00;101406.34;5063697;28;20033;-71
2023/12/20 06:52:08;;;;;;;22.85;4.07;;;;;;;6.11;100.00;101400.22;5056077;28;20518;-71
2023/12/20 06:54:35;;;;;;;15.82;4.28;;;;;;;6.11;100.00;101404.59;5057695;28;20662;-70
2023/12/20 06:57:04;;;;;;;14.15;3.65;;;;;;;6.09;100.00;101401.13;5056091;28;20135;-72
2023/12/20 06:59:31;;;;;;;18.25;3.85;;;;;;;6.08;100.00;101391.53;5061217;28;20048;-70
2023/12/20 07:01:58;;;;;;;17.92;3.83;;;;;;;6.08;100.00;101397.63;5057003;28;20075;-72
2023/12/20 07:04:25;;;;;;;21.95;4.30;;;;;;;6.05;100.00;101398.50;5057909;28;20040;-70
2023/12/20 07:06:56;;;;;;;19.23;4.32;;;;;;;6.05;100.00;101395.03;5072863;28;20710;-70
2023/12/20 07:09:23;;;;;;;16.15;3.80;;;;;;;6.04;100.00;101404.59;5057257;28;20048;-70
2023/12/20 07:11:51;;;;;;;17.65;4.13;;;;;;;6.04;100.00;101398.50;5096384;28;20052;-71
2023/12/20 07:14:18;;;;;;;16.38;4.07;;;;;;;6.02;100.00;101401.13;5061114;28;20119;-71
2023/12/20 07:16:45;;;;;;;22.00;4.20;;;;;;;6.02;100.00;101398.50;5091896;28;20117;-71
2023/12/20 07:19:13;;;;;;;19.75;3.88;;;;;;;6.01;100.00;101401.13;5066928;28;20119;-71
2023/12/20 07:21:40;;;;;;;19.83;4.28;;;;;;;6.00;100.00;101404.63;5065941;28;20750;-71
2023/12/20 07:24:07;;;;;;;23.35;4.45;;;;;;;5.99;100.00;101406.38;5065484;28;20459;-71
2023/12/20 07:26:35;;;;;;;16.40;4.47;;;;;;;5.99;100.00;101397.59;5048025;28;20123;-71
2023/12/20 07:29:04;;;;;;;20.77;4.30;;;;;;;5.97;100.00;101397.63;5058704;28;20204;-71
2023/12/20 07:31:31;;;;;;;24.48;4.38;;;;;;;5.97;100.00;101407.19;5065538;28;20172;-71
2023/12/20 07:33:58;;;;;;;23.85;5.03;;;;;;;5.94;100.00;101402.84;5078712;28;20123;-71
2023/12/20 07:36:25;;;;;;;19.40;4.60;;;;;;;5.93;100.00;101403.72;5061224;28;20071;-71
2023/12/20 07:38:52;;;;;;;20.38;4.88;;;;;;;5.91;100.00;101397.63;5062112;28;20093;-71
2023/12/20 07:41:21;;;;;;;18.85;4.13;;;;;;;5.90;100.00;101394.16;5081790;28;20060;-71
2023/12/20 07:43:49;;;;;;;19.50;4.68;;;;;;;5.90;100.00;101385.44;5094245;28;20482;-71
2023/12/20 07:46:16;;;;;;;22.75;5.43;;;;;;;5.90;100.00;101394.16;5061346;28;20574;-71
2023/12/20 07:48:43;;;;;;;17.25;4.78;;;;;;;5.89;100.00;101391.53;5064433;28;20148;-71
2023/12/20 07:51:12;;;;;;;23.02;5.90;;;;;;;5.88;100.00;101388.03;5061065;28;20045;-71
2023/12/20 07:53:39;;;;;;;24.02;5.20;;;;;;;5.89;100.00;101400.25;5061234;28;20044;-71
2023/12/20 07:56:19;;;;;;;20.05;5.57;;;;;;;5.91;100.00;101400.22;5062108;28;20044;-69
2023/12/20 07:58:48;;;;;;;25.80;5.15;;;;;;;5.90;100.00;101388.91;5070443;28;20053;-69
2023/12/20 08:01:20;;;;;;;20.70;5.35;;;;;;;5.89;100.00;101391.53;5067781;28;20522;-70
2023/12/20 08:03:50;;;;;;;20.77;5.38;;;;;;;5.90;100.00;101388.06;5057250;28;20519;-70
2023/12/20 08:06:18;;;;;;;17.60;5.25;;;;;;;5.91;100.00;101392.38;5054224;28;20738;-70
2023/12/20 08:08:45;;;;;;;26.48;5.75;;;;;;;5.91;100.00;101402.84;5067359;28;20071;-70
2023/12/20 08:11:19;;;;;;;18.27;4.60;;;;;;;5.91;100.00;101410.69;5099896;28;20067;-70
2023/12/20 08:13:46;;;;;;;19.02;4.80;;;;;;;5.92;100.00;101407.22;5082181;28;20301;-71
2023/12/20 08:16:15;;;;;;;19.70;4.80;;;;;;;5.95;100.00;101404.59;5082422;28;20430;-71
2023/12/20 08:18:43;;;;;;;19.30;5.10;;;;;;;5.97;100.00;101426.41;5082042;28;20366;-71
2023/12/20 08:21:11;;;;;;;23.73;4.63;;;;;;;5.97;100.00;101421.19;5066408;28;20512;-71
2023/12/20 08:23:38;;;;;;;21.58;5.07;;;;;;;5.99;100.00;101413.31;5059489;28;20048;-71
2023/12/20 08:26:07;;;;;;;19.55;4.90;;;;;;;6.01;100.00;101419.47;5051477;28;20468;-71
2023/12/20 08:28:36;;;;;;;15.32;4.50;;;;;;;6.03;100.00;101415.09;5064583;28;20041;-72
2023/12/20 08:31:03;;;;;;;19.23;4.05;;;;;;;6.05;100.00;101421.22;5066674;28;20033;-71
2023/12/20 08:33:31;;;;;;;18.77;4.50;;;;;;;6.06;100.00;101425.53;5069733;28;20412;-70
2023/12/20 08:35:58;;;;;;;18.45;4.38;;;;;;;6.10;100.00;101413.34;5065115;28;20181;-71
2023/12/20 08:38:25;;;;;;;17.67;4.63;;;;;;;6.10;100.00;101422.06;5065899;28;20069;-70
2023/12/20 08:40:52;;;;;;;21.17;4.88;;;;;;;6.10;100.00;101410.72;5065802;28;20711;-70
2023/12/20 08:43:19;;;;;;;20.58;4.40;;;;;;;6.12;100.00;101409.84;5065622;28;20123;-70
2023/12/20 08:45:46;;;;;;;17.65;4.20;;;;;;;6.14;100.00;101408.09;5065495;28;20511;-70
2023/12/20 08:48:13;;;;;;;16.08;3.63;;;;;;;6.17;100.00;101415.91;5066378;28;20044;-70
2023/12/20 08:50:43;;;;;;;19.33;4.68;;;;;;;6.20;100.00;101413.28;5065296;28;20476;-71
2023/12/20 08:53:13;;;;;;;15.55;3.42;;;;;;;6.26;100.00;101406.31;5066070;28;20055;-72
2023/12/20 08:55:43;;;;;;;20.75;3.85;;;;;;;6.27;100.00;101408.03;5077903;28;20041;-72
2023/12/20 08:58:10;;;;;;;18.15;4.00;;;;;;;6.28;100.00;101409.78;5068119;28;20044;-71
2023/12/20 09:00:38;;;;;;;21.45;4.63;;;;;;;6.29;100.00;101395.81;5066693;28;20048;-72
2023/12/20 09:03:05;;;;;;;19.83;4.30;;;;;;;6.30;100.00;101393.19;5065472;28;20045;-72
2023/12/20 09:05:32;;;;;;;19.80;3.83;;;;;;;6.33;100.00;101397.56;5062212;28;20774;-71
2023/12/20 09:07:59;;;;;;;20.50;4.13;;;;;;;6.35;100.00;101388.81;5044937;28;20148;-72
2023/12/20 09:10:27;;;;;;;18.85;3.70;;;;;;;6.39;100.00;101380.94;5057980;28;20777;-71
2023/12/20 09:12:56;;;;;;;18.35;3.67;;;;;;;6.43;100.00;101372.19;5050499;28;20558;-71
2023/12/20 09:15:25;;;;;;;17.30;4.03;;;;;;;6.44;100.00;101380.03;5067600;28;20060;-72
2023/12/20 09:17:53;;;;;;;16.40;3.70;;;;;;;6.47;100.00;101379.16;5084739;28;20041;-72
2023/12/20 09:20:23;;;;;;;18.45;3.97;;;;;;;6.48;100.00;101380.91;5086221;28;20060;-72
2023/12/20 09:22:50;;;;;;;17.83;4.13;;;;;;;6.53;100.00;101392.22;5086216;28;20094;-72
2023/12/20 09:25:17;;;;;;;19.35;3.55;;;;;;;6.53;100.00;101380.00;5069881;28;20475;-72
2023/12/20 09:27:45;;;;;;;15.32;3.58;;;;;;;6.59;100.00;101386.06;5058079;28;20064;-73
2023/12/20 09:30:12;;;;;;;16.50;3.42;;;;;;;6.61;100.00;101392.19;5065293;28;20059;-72
2023/12/20 09:32:51;;;;;;;16.25;3.58;;;;;;;6.67;100.00;101392.13;5065406;28;20049;-71
2023/12/20 09:35:21;;;;;;;16.80;3.67;;;;;;;6.70;100.00;101397.38;5064101;28;20542;-70
2023/12/20 09:37:50;;;;;;;13.23;3.10;;;;;;;6.73;100.00;101373.78;5065715;28;20040;-70
2023/12/20 09:40:19;;;;;;;13.43;3.38;;;;;;;6.80;100.00;101379.88;5064513;28;20044;-70
2023/12/20 09:43:12;;;;;;;13.23;3.17;;;;;;;6.80;100.00;101388.56;5052618;28;20113;-70
2023/12/20 09:45:52;;;;;;;18.88;3.47;;;;;;;6.84;100.00;101389.44;5065157;28;20045;-70
2023/12/20 09:48:26;;;;;;;16.33;3.78;;;;;;;6.89;100.00;101399.88;5064376;28;20033;-70
2023/12/20 09:50:56;;;;;;;17.30;3.70;;;;;;;6.89;100.00;101403.41;5068058;28;20041;-70
2023/12/20 09:53:29;;;;;;;17.80;3.70;;;;;;;6.91;100.00;101408.63;5064638;28;20109;-70
2023/12/20 09:56:02;;;;;;;13.63;3.33;;;;;;;6.90;100.00;101399.00;5064724;28;20495;-71
2023/12/20 09:58:29;;;;;;;18.20;4.18;;;;;;;6.91;100.00;101406.00;5064908;28;20519;-71
2023/12/20 10:00:57;;;;;;;19.98;4.35;;;;;;;6.92;100.00;101405.13;5067386;28;20048;-71
2023/12/20 10:03:26;;;;;;;17.67;4.55;;;;;;;6.91;100.00;101392.88;5063423;28;20519;-71
2023/12/20 10:05:57;;;;;;;17.30;3.92;;;;;;;6.91;100.00;101390.25;5064105;28;20048;-71
2023/12/20 10:08:25;;;;;;;17.02;3.75;;;;;;;6.89;100.00;101390.28;5066117;28;20123;-71
2023/12/20 10:10:52;;;;;;;17.10;4.13;;;;;;;6.90;100.00;101389.41;5067109;28;20053;-71
2023/12/20 10:13:19;;;;;;;20.77;4.60;;;;;;;6.89;100.00;101392.03;5062490;28;20459;-71
2023/12/20 10:15:47;;;;;;;18.10;4.10;;;;;;;6.89;100.00;101386.78;5040977;28;20044;-71
2023/12/20 10:18:15;;;;;;;22.02;6.53;;;;;;;6.89;100.00;101399.88;5061755;28;20067;-71
2023/12/20 10:20:42;;;;;;;16.77;5.57;;;;;;;6.86;100.00;101395.53;5062147;28;20528;-71
2023/12/20 10:23:10;;;;;;;20.65;6.20;;;;;;;6.86;100.00;101389.44;5066319;28;20052;-71
2023/12/20 10:25:38;;;;;;;15.63;3.97;;;;;;;6.86;100.00;101394.69;5066628;28;20097;-71
2023/12/20 10:28:21;;;;;;;21.20;8.48;;;;;;;6.86;100.00;101397.31;5062722;28;20141;-71
2023/12/20 10:30:48;;;;;;;17.60;3.85;;;;;;;6.86;100.00;101400.78;5047923;28;20094;-71
2023/12/20 10:33:34;;;;;;;22.38;5.05;;;;;;;6.86;100.00;101399.94;5066343;28;20048;-71
2023/12/20 10:36:05;;;;;;;22.10;5.07;;;;;;;6.83;100.00;101393.81;5064390;28;20052;-71
2023/12/20 10:38:41;;;;;;;19.40;4.07;;;;;;;6.86;100.00;101390.28;5078428;28;20029;-71
2023/12/20 10:41:12;;;;;;;;;;;;;;;6.89;100.00;101378.91;5064832;28;20052;-71
2023/12/20 10:43:40;;;;;;;15.93;4.10;;;;;;;6.90;100.00;101375.41;5067242;28;19934;-71
2023/12/20 10:46:11;;;;;;;17.35;4.03;;;;;;;6.91;100.00;101370.19;5062390;28;20052;-71
2023/12/20 10:48:40;;;;;;;17.85;4.28;;;;;;;6.95;100.00;101365.78;5050079;28;20055;-71
2023/12/20 10:51:11;;;;;;;16.80;4.43;;;;;;;6.95;100.00;101360.53;5063465;28;20412;-71
2023/12/20 10:53:40;;;;;;;20.83;4.45;;;;;;;6.98;100.00;101345.66;5047482;28;20033;-71
2023/12/20 10:56:15;;;;;;;31.17;9.18;;;;;;;7.02;100.00;101345.66;5057247;28;20044;-70
2023/12/20 10:58:49;;;;;;;58.60;20.38;;;;;;;7.03;100.00;101347.34;5064018;28;20096;-71
2023/12/20 11:01:18;;;;;;;19.42;4.22;;;;;;;7.04;100.00;101350.00;5065659;28;20433;-71
2023/12/20 11:03:53;;;;;;;15.43;3.55;;;;;;;7.07;100.00;101338.59;5055294;28;20052;-71
2023/12/20 11:06:51;;;;;;;20.88;5.95;;;;;;;7.09;100.00;101342.94;5062802;28;20051;-72
2023/12/20 11:09:29;;;;;;;20.63;5.75;;;;;;;7.12;100.00;101349.94;5080099;28;20047;-71
2023/12/20 11:12:09;;;;;;;16.38;4.53;;;;;;;7.13;100.00;101342.06;5074178;28;20041;-71
2023/12/20 11:14:50;;;;;;;15.57;3.20;;;;;;;7.19;100.00;101346.38;5056001;28;20048;-70
2023/12/20 11:17:18;;;;;;;20.25;4.03;;;;;;;7.25;100.00;101345.47;5056014;28;20115;-71
2023/12/20 11:19:57;;;;;;;15.00;4.68;;;;;;;7.29;100.00;101345.41;5071884;28;20045;-71
2023/12/20 11:22:27;;;;;;;17.95;3.72;;;;;;;7.33;100.00;101335.75;5090318;28;20053;-72